METAR Data
IDs: Format: Raw Decoded Include TAF

Data at: 0702 UTC 03 Aug 2021

KSNS 030653Z AUTO 30007KT 10SM OVC007 16/13 A3006 RMK AO2 SLP188 T01610133 $
KSNS 030553Z AUTO 29009KT 10SM OVC008 16/13 A3006 RMK AO2 SLPNO T01560128 10222 20156 $
KSNS 030453Z AUTO 33008KT 10SM OVC010 17/13 A3006 RMK AO2 SLPNO T01670133 $
KSNS 030253Z AUTO 31010KT 10SM CLR 18/13 A3005 RMK AO2 SLPNO T01780133 53001 $
KSNS 030153Z AUTO 31013KT 10SM CLR 19/13 A3004 RMK AO2 SLPNO T01940128
KSNS 030053Z 33012KT 10SM CLR 22/13 A3004 RMK AO2 SLPNO T02170128
KSNS 022353Z 33011KT 10SM CLR 22/13 A3005 RMK AO2 SLPNO 6//// T02220128 58011
KSNS 022253Z 30013KT 10SM CLR 23/13 A3006 RMK AO2 SLPNO T02280128
KSNS 022153Z 33012KT 10SM CLR 23/13 A3007 RMK AO2 SLPNO T02280128
KSNS 022053Z 31014KT 10SM CLR 23/13 A3008 RMK AO2 SLPNO 6//// T02280128
KSNS 021953Z 32011KT 10SM CLR 23/13 A3010 RMK AO2 SLPNO T02280133
KSNS 021853Z AUTO 30007KT 22/13 A3010 RMK AO2 SLPNO T02220128 RVRNO
KSNS 021653Z 27004KT 10SM OVC009 16/13 A3012 RMK AO2 SLP209 T01610128 PNO
KSNS 021553Z 13005KT 10SM OVC007 16/12 A3012 RMK AO2 SLP209 T01560122 PNO
KSNS 021453Z 00000KT 10SM OVC009 15/12 A3012 RMK AO2 SLP209 6//// T01500122 52014 PNO
KSNS 021446Z 11003KT 10SM OVC009 15/12 A3012 RMK AO2 T01500122 PNO
KSNS 021353Z 15003KT 10SM OVC011 14/12 A3011 RMK AO2 SLP205 T01440117 PNO $
KSNS 021253Z 16004KT 10SM OVC012 14/11 A3009 RMK AO2 SLP200 T01440111 PNO $
KSNS 021153Z AUTO 12003KT 10SM OVC013 14/11 A3008 RMK AO2 SLP196 6//// 7//// T01440111 10172 20139 55005 PNO $
KSNS 021053Z AUTO 00000KT 10SM OVC014 15/12 A3008 RMK AO2 SLP195 T01500117 PNO $
KSNS 021022Z AUTO 00000KT 10SM BKN014 14/11 A3008 RMK AO2 T01440111 PNO $
KSNS 020953Z AUTO 00000KT 10SM CLR 14/11 A3009 RMK AO2 SLP196 T01440111 PNO $
KSNS 020853Z AUTO 32003KT 10SM CLR 15/12 A3010 RMK AO2 SLP201 6//// T01500117 58001 PNO $
KSNS 020753Z AUTO 00000KT 10SM CLR 16/12 A3010 RMK AO2 SLP202 T01560122 402220150 PNO $
KSNS 020653Z AUTO 04003KT 10SM CLR 16/12 A3010 RMK AO2 SLP202 T01560117 PNO $
KSNS 020553Z AUTO 36003KT 10SM CLR 17/13 A3010 RMK AO2 SLP202 6//// T01720133 10217 20172 51010 PNO $
KSNS 020453Z AUTO 35005KT 10SM CLR 18/13 A3009 RMK AO2 SLP200 T01780128 PNO $
KSNS 020353Z AUTO 34007KT 10SM CLR 18/13 A3009 RMK AO2 SLP197 T01780128 PNO $
KSNS 020253Z AUTO 33010KT 10SM CLR 19/13 A3007 RMK AO2 SLP192 6//// T01890128 53002 PNO $
KSNS 020153Z AUTO 31011KT 10SM CLR 20/13 A3006 RMK AO2 SLP189 T02000128 PNO $
KSNS 020053Z AUTO 33012KT 10SM CLR 21/13 A3006 RMK AO2 SLP189 T02110128 PNO $
KSNS 012353Z AUTO 34011KT 10SM CLR 22/13 A3007 RMK AO2 SLP190 6//// T02170128 10222 20189 58007 PNO $
KSNS 012253Z AUTO 31012KT 10SM CLR 22/13 A3007 RMK AO2 SLP192 T02170128 PNO $
KSNS 012153Z AUTO 31012KT 10SM CLR 22/12 A3008 RMK AO2 SLP195 T02170122 PNO $
KSNS 012053Z AUTO 29013G18KT 10SM CLR 21/12 A3009 RMK AO2 SLP196 6//// T02110122 55001 PNO $
KSNS 011953Z 32013KT 10SM CLR 21/13 A3008 RMK AO2 SLP196 T02060128 PNO $